Time;durP1;ratioP1;P1;durP2;ratioP2;P2;SDS_P1;SDS_P2;PMS_P1;PMS_P2;Temp;Humidity;BMP_temperature;BMP_pressure;BME280_temperature;BME280_humidity;BME280_pressure;Samples;Min_cycle;Max_cycle;Signal;HPM_P1;HPM_P2
2022/01/26 00:06:29;;;;;;;26.13;11.47;;;;;;;;;;5048606;28;20198;-76
2022/01/26 00:08:56;;;;;;;29.10;12.10;;;;;;;;;;5076071;28;20198;-76
2022/01/26 00:11:23;;;;;;;31.53;12.23;;;;;;;;;;5076068;28;20551;-76
2022/01/26 00:13:50;;;;;;;32.30;11.80;;;;;;;;;;5075395;28;20604;-77
2022/01/26 00:16:26;;;;;;;26.73;11.37;;;;;;;;;;5077328;28;20284;-75
2022/01/26 00:18:56;;;;;;;29.33;11.97;;;;;;;;;;5074092;28;20217;-76
2022/01/26 00:21:47;;;;;;;32.30;11.33;;;;;;;;;;5074606;28;20198;-76
2022/01/26 00:24:37;;;;;;;32.30;13.17;;;;;;;;;;5071573;28;20486;-77
2022/01/26 00:29:47;;;;;;;32.60;13.07;;;;;;;;;;5076326;28;20201;-77
2022/01/26 02:55:34;;;;;;;35.37;13.87;;;;;;;;;;5076673;28;20495;-77
2022/01/26 03:28:24;;;;;;;40.07;14.30;;;;;;;;;;4990041;28;20257;-76
2022/01/26 03:33:53;;;;;;;42.33;14.27;;;;;;;;;;5077282;28;20326;-76
2022/01/26 03:36:20;;;;;;;39.47;14.60;;;;;;;;;;5080398;28;20683;-76
2022/01/26 03:38:55;;;;;;;37.60;13.80;;;;;;;;;;5075437;28;20222;-76
2022/01/26 03:41:33;;;;;;;44.47;15.67;;;;;;;;;;5079892;28;20229;-77
2022/01/26 03:44:03;;;;;;;44.80;15.03;;;;;;;;;;5076455;28;20218;-77
2022/01/26 03:46:31;;;;;;;45.57;16.40;;;;;;;;;;5079095;28;20463;-77
2022/01/26 03:48:58;;;;;;;40.00;15.03;;;;;;;;;;5078813;28;20294;-77
2022/01/26 03:51:25;;;;;;;44.80;15.57;;;;;;;;;;5078962;28;20237;-76
2022/01/26 03:53:52;;;;;;;45.43;15.70;;;;;;;;;;5076668;28;20226;-78
2022/01/26 03:56:20;;;;;;;42.93;14.77;;;;;;;;;;5081583;28;20238;-77
2022/01/26 03:58:47;;;;;;;47.73;17.07;;;;;;;;;;5077366;28;20643;-77
2022/01/26 04:01:15;;;;;;;54.70;16.40;;;;;;;;;;5078654;28;20204;-76
2022/01/26 04:03:42;;;;;;;42.90;15.03;;;;;;;;;;5081061;28;20744;-76
2022/01/26 04:06:10;;;;;;;48.57;16.80;;;;;;;;;;5079447;28;20229;-76
2022/01/26 04:08:40;;;;;;;45.17;15.67;;;;;;;;;;5079645;28;21823;-77
2022/01/26 04:11:22;;;;;;;49.43;16.93;;;;;;;;;;5075422;28;20225;-76
2022/01/26 04:13:50;;;;;;;47.83;16.90;;;;;;;;;;5078853;28;20920;-76
2022/01/26 04:16:19;;;;;;;53.73;16.17;;;;;;;;;;5077795;28;20213;-77
2022/01/26 04:18:47;;;;;;;52.83;16.77;;;;;;;;;;5076352;28;21139;-77
2022/01/26 04:42:50;;;;;;;50.73;16.93;;;;;;;;;;4959315;28;20201;-76
2022/01/26 05:16:50;;;;;;;46.43;16.23;;;;;;;;;;4760293;30;20220;-77
2022/01/26 05:19:19;;;;;;;55.10;20.30;;;;;;;;;;4918577;28;21022;-76
2022/01/26 05:21:46;;;;;;;49.27;17.20;;;;;;;;;;4979183;28;20206;-76
2022/01/26 05:24:13;;;;;;;55.73;18.80;;;;;;;;;;5057709;28;20688;-76
2022/01/26 05:26:40;;;;;;;50.73;17.17;;;;;;;;;;5078416;28;20199;-77
2022/01/26 05:29:08;;;;;;;50.17;17.23;;;;;;;;;;5081649;28;20669;-77
2022/01/26 05:31:35;;;;;;;52.60;17.40;;;;;;;;;;5080849;28;20217;-77
2022/01/26 05:34:02;;;;;;;55.97;18.00;;;;;;;;;;5076664;28;20487;-76
2022/01/26 05:36:31;;;;;;;62.00;19.60;;;;;;;;;;5078948;28;20241;-77
2022/01/26 05:38:58;;;;;;;53.20;17.77;;;;;;;;;;5080873;28;20461;-76
2022/01/26 05:41:25;;;;;;;53.03;19.30;;;;;;;;;;5078152;28;20464;-76
2022/01/26 05:43:53;;;;;;;54.33;18.53;;;;;;;;;;5077549;28;20488;-77
2022/01/26 05:46:26;;;;;;;48.40;17.00;;;;;;;;;;5081893;28;20747;-77
2022/01/26 05:48:55;;;;;;;54.43;18.63;;;;;;;;;;5077016;28;20535;-75
2022/01/26 05:51:22;;;;;;;56.37;18.23;;;;;;;;;;5082036;28;20475;-77
2022/01/26 05:53:51;;;;;;;49.43;17.53;;;;;;;;;;5077233;28;20591;-77
2022/01/26 05:56:18;;;;;;;63.50;19.93;;;;;;;;;;5081135;28;20463;-77
2022/01/26 05:58:45;;;;;;;59.53;18.80;;;;;;;;;;5082275;28;20208;-76
2022/01/26 06:01:14;;;;;;;51.47;17.50;;;;;;;;;;5070424;28;20205;-77
2022/01/26 06:03:41;;;;;;;58.80;19.93;;;;;;;;;;5074146;28;20241;-76
2022/01/26 06:06:08;;;;;;;61.43;19.97;;;;;;;;;;5073107;28;20202;-76
2022/01/26 06:08:35;;;;;;;60.10;20.97;;;;;;;;;;5079941;28;20205;-76
2022/01/26 06:11:04;;;;;;;60.20;20.43;;;;;;;;;;5078989;28;20221;-77
2022/01/26 06:13:31;;;;;;;62.30;19.67;;;;;;;;;;5071585;28;20229;-77
2022/01/26 06:15:58;;;;;;;61.30;20.23;;;;;;;;;;5078140;28;20667;-77
2022/01/26 06:18:26;;;;;;;56.60;19.23;;;;;;;;;;5071859;28;20205;-77
2022/01/26 06:20:53;;;;;;;56.63;19.93;;;;;;;;;;5068527;28;20221;-77
2022/01/26 06:23:24;;;;;;;59.53;20.37;;;;;;;;;;5066886;28;20727;-77
2022/01/26 06:25:52;;;;;;;65.97;20.30;;;;;;;;;;5070814;28;20210;-77
2022/01/26 06:28:21;;;;;;;69.27;20.57;;;;;;;;;;5071401;28;20205;-76
2022/01/26 06:30:52;;;;;;;57.60;19.40;;;;;;;;;;5071187;28;20209;-76
2022/01/26 06:33:20;;;;;;;65.43;21.10;;;;;;;;;;5071454;28;20312;-76
2022/01/26 06:35:48;;;;;;;58.00;20.43;;;;;;;;;;5069259;28;20362;-77
2022/01/26 06:38:16;;;;;;;61.57;20.47;;;;;;;;;;5072601;28;20507;-77
2022/01/26 06:40:43;;;;;;;64.33;20.60;;;;;;;;;;5070885;28;20307;-77
2022/01/26 06:43:13;;;;;;;66.37;19.87;;;;;;;;;;5077393;28;20664;-77
2022/01/26 06:45:47;;;;;;;68.13;20.67;;;;;;;;;;5074487;28;20460;-76
2022/01/26 06:51:08;;;;;;;70.90;20.03;;;;;;;;;;5045306;28;20225;-77
2022/01/26 06:53:35;;;;;;;63.53;20.63;;;;;;;;;;5083967;28;20222;-77
2022/01/26 06:56:02;;;;;;;62.97;20.70;;;;;;;;;;5083028;28;20300;-77
2022/01/26 06:58:29;;;;;;;66.90;19.80;;;;;;;;;;5083622;28;20251;-77
2022/01/26 07:00:58;;;;;;;61.57;20.03;;;;;;;;;;5081796;28;20537;-77
2022/01/26 07:03:25;;;;;;;70.83;19.97;;;;;;;;;;5084126;28;20257;-77
2022/01/26 07:05:52;;;;;;;71.00;20.53;;;;;;;;;;5080955;28;20202;-77
2022/01/26 07:08:19;;;;;;;57.43;18.43;;;;;;;;;;5079107;28;20287;-77
2022/01/26 07:10:48;;;;;;;62.93;18.17;;;;;;;;;;5081925;28;20206;-77
2022/01/26 07:13:16;;;;;;;59.37;19.03;;;;;;;;;;5081405;28;20234;-77
2022/01/26 07:21:25;;;;;;;57.00;18.30;;;;;;;;;;5078578;28;20618;-77
2022/01/26 07:23:52;;;;;;;53.73;18.00;;;;;;;;;;5083211;28;20267;-77
2022/01/26 07:26:19;;;;;;;58.93;19.43;;;;;;;;;;5084280;28;20229;-77
2022/01/26 07:28:47;;;;;;;61.03;20.23;;;;;;;;;;5081246;28;20206;-77
2022/01/26 07:31:14;;;;;;;53.67;18.13;;;;;;;;;;5081804;28;20206;-76
2022/01/26 07:33:43;;;;;;;67.97;20.67;;;;;;;;;;5085064;28;20692;-77
2022/01/26 07:36:10;;;;;;;51.43;17.20;;;;;;;;;;5082483;28;20226;-77
2022/01/26 07:38:37;;;;;;;57.87;18.63;;;;;;;;;;5084297;28;20217;-77
2022/01/26 07:41:05;;;;;;;63.03;18.30;;;;;;;;;;5076912;28;20288;-77
2022/01/26 07:43:32;;;;;;;59.87;19.17;;;;;;;;;;5073926;28;20308;-76
2022/01/26 07:45:59;;;;;;;61.60;20.27;;;;;;;;;;5076264;28;20293;-77
2022/01/26 07:48:26;;;;;;;50.90;17.97;;;;;;;;;;5075369;28;20205;-76
2022/01/26 07:50:56;;;;;;;60.57;19.43;;;;;;;;;;5079187;28;20255;-77
2022/01/26 07:53:23;;;;;;;58.40;18.37;;;;;;;;;;5076239;28;20230;-77
2022/01/26 07:55:50;;;;;;;58.17;17.83;;;;;;;;;;5080845;28;20212;-77
2022/01/26 07:58:19;;;;;;;55.63;18.97;;;;;;;;;;5083035;28;20206;-77
2022/01/26 08:00:46;;;;;;;57.10;17.87;;;;;;;;;;5084202;28;20206;-76
2022/01/26 08:03:13;;;;;;;56.40;18.27;;;;;;;;;;5081649;28;20305;-77
2022/01/26 08:05:41;;;;;;;51.17;18.70;;;;;;;;;;5082291;28;20236;-76
2022/01/26 08:08:09;;;;;;;57.93;18.93;;;;;;;;;;5081963;28;20727;-76
2022/01/26 08:10:36;;;;;;;60.93;18.93;;;;;;;;;;5081523;28;20198;-76
2022/01/26 08:13:04;;;;;;;58.47;19.10;;;;;;;;;;5079900;28;20229;-76
2022/01/26 08:15:31;;;;;;;60.23;19.73;;;;;;;;;;5081375;28;20193;-76
2022/01/26 08:17:59;;;;;;;65.60;20.43;;;;;;;;;;5084249;28;20208;-76
2022/01/26 08:20:26;;;;;;;54.23;18.20;;;;;;;;;;5081789;28;20748;-76
2022/01/26 08:22:56;;;;;;;63.00;20.20;;;;;;;;;;5084385;28;20305;-76
2022/01/26 08:25:25;;;;;;;65.83;19.40;;;;;;;;;;5081313;28;20233;-76
2022/01/26 08:27:58;;;;;;;65.30;19.80;;;;;;;;;;5085050;28;20289;-76
2022/01/26 08:30:25;;;;;;;69.07;20.20;;;;;;;;;;5084225;28;20197;-76
2022/01/26 08:32:53;;;;;;;65.53;21.53;;;;;;;;;;5082316;28;20630;-76
2022/01/26 08:35:20;;;;;;;66.23;18.57;;;;;;;;;;5078463;28;20217;-76
2022/01/26 08:37:47;;;;;;;66.87;21.00;;;;;;;;;;5081416;28;20202;-76
2022/01/26 08:40:14;;;;;;;66.73;20.97;;;;;;;;;;5083515;28;20648;-76
2022/01/26 08:42:43;;;;;;;67.93;20.33;;;;;;;;;;5083555;28;20208;-76
2022/01/26 08:45:10;;;;;;;71.87;21.80;;;;;;;;;;5082129;28;20661;-76
2022/01/26 08:47:37;;;;;;;56.97;19.30;;;;;;;;;;5079689;28;20201;-76
2022/01/26 08:50:05;;;;;;;70.17;20.50;;;;;;;;;;5080068;28;20207;-76
2022/01/26 08:52:33;;;;;;;60.70;20.30;;;;;;;;;;5083257;28;20272;-76
2022/01/26 08:55:00;;;;;;;64.67;19.43;;;;;;;;;;5079982;28;20223;-76
2022/01/26 08:57:27;;;;;;;63.50;20.40;;;;;;;;;;5081317;28;20198;-76
2022/01/26 08:59:55;;;;;;;64.87;20.07;;;;;;;;;;5077024;28;20200;-76
2022/01/26 09:02:23;;;;;;;65.43;20.43;;;;;;;;;;5082491;28;20576;-76
2022/01/26 09:04:50;;;;;;;68.20;19.83;;;;;;;;;;5077810;28;20260;-76
2022/01/26 09:07:20;;;;;;;73.87;23.33;;;;;;;;;;5074934;28;20214;-76
2022/01/26 09:09:47;;;;;;;72.30;22.30;;;;;;;;;;5076692;28;20223;-76
2022/01/26 09:12:16;;;;;;;70.97;21.67;;;;;;;;;;5082609;28;20802;-76
2022/01/26 09:14:44;;;;;;;80.13;22.57;;;;;;;;;;5081340;28;20221;-76
2022/01/26 09:17:13;;;;;;;72.63;23.43;;;;;;;;;;5078856;28;20741;-76
2022/01/26 09:19:42;;;;;;;83.40;23.53;;;;;;;;;;5078759;28;20201;-76
2022/01/26 09:22:10;;;;;;;77.80;23.33;;;;;;;;;;5078171;28;20221;-77
2022/01/26 09:24:38;;;;;;;80.87;24.37;;;;;;;;;;5078543;28;20309;-76
2022/01/26 09:27:06;;;;;;;82.60;24.83;;;;;;;;;;5078229;28;20208;-76
2022/01/26 09:29:34;;;;;;;80.20;23.90;;;;;;;;;;5078972;28;20194;-76
2022/01/26 09:32:01;;;;;;;90.47;23.80;;;;;;;;;;5080589;28;20230;-76
2022/01/26 09:34:35;;;;;;;92.33;25.03;;;;;;;;;;5074681;28;20484;-76
2022/01/26 09:37:02;;;;;;;86.40;24.70;;;;;;;;;;5076212;28;20301;-76
2022/01/26 09:39:30;;;;;;;100.97;27.27;;;;;;;;;;5075106;28;20438;-75
2022/01/26 09:41:57;;;;;;;93.03;25.53;;;;;;;;;;5076955;28;20205;-77
2022/01/26 09:44:24;;;;;;;94.53;26.70;;;;;;;;;;5079153;28;20316;-77
2022/01/26 09:46:51;;;;;;;96.90;25.37;;;;;;;;;;5074024;28;20210;-77
2022/01/26 09:49:19;;;;;;;87.17;25.10;;;;;;;;;;5081285;28;20753;-76
2022/01/26 09:51:50;;;;;;;100.37;25.70;;;;;;;;;;5082656;28;20266;-76
2022/01/26 09:54:18;;;;;;;101.23;25.63;;;;;;;;;;5078941;28;20224;-77
2022/01/26 09:56:46;;;;;;;87.40;23.87;;;;;;;;;;5084899;28;20209;-77
2022/01/26 09:59:14;;;;;;;96.03;27.87;;;;;;;;;;5072893;28;20869;-76
2022/01/26 10:01:41;;;;;;;92.90;26.90;;;;;;;;;;5084016;28;20216;-76
2022/01/26 10:04:19;;;;;;;86.37;23.50;;;;;;;;;;5077968;28;20221;-76
2022/01/26 10:06:50;;;;;;;104.30;27.17;;;;;;;;;;5069746;28;20788;-75
2022/01/26 10:09:44;;;;;;;87.33;22.63;;;;;;;;;;5072597;28;20672;-76
2022/01/26 10:17:43;;;;;;;93.30;25.70;;;;;;;;;;5076163;28;20240;-77
2022/01/26 10:20:15;;;;;;;93.97;25.00;;;;;;;;;;5084051;28;20679;-76
2022/01/26 10:22:43;;;;;;;106.60;27.53;;;;;;;;;;5082419;28;20517;-77
2022/01/26 10:25:12;;;;;;;102.73;24.07;;;;;;;;;;5084145;28;20595;-77
2022/01/26 10:27:40;;;;;;;98.93;26.57;;;;;;;;;;5082267;28;20201;-77
2022/01/26 10:30:08;;;;;;;109.17;27.57;;;;;;;;;;5080699;28;20672;-77
2022/01/26 10:32:36;;;;;;;106.80;26.50;;;;;;;;;;5087993;28;20487;-77
2022/01/26 10:35:05;;;;;;;104.37;27.43;;;;;;;;;;5084915;28;20304;-77
2022/01/26 10:37:32;;;;;;;102.40;29.00;;;;;;;;;;5081791;28;20490;-77
2022/01/26 10:40:13;;;;;;;100.57;28.63;;;;;;;;;;5087126;28;20206;-77
2022/01/26 10:42:41;;;;;;;110.67;29.57;;;;;;;;;;5082159;28;20205;-77
2022/01/26 10:45:15;;;;;;;117.73;28.17;;;;;;;;;;5080159;28;20245;-77
2022/01/26 10:47:47;;;;;;;108.50;28.83;;;;;;;;;;5085372;28;20254;-77
2022/01/26 10:50:43;;;;;;;107.07;28.93;;;;;;;;;;5081959;28;20208;-77
2022/01/26 10:53:11;;;;;;;117.73;28.87;;;;;;;;;;5083711;28;20230;-77
2022/01/26 10:55:40;;;;;;;114.93;26.33;;;;;;;;;;5085692;28;20566;-77
2022/01/26 10:58:08;;;;;;;109.03;27.23;;;;;;;;;;5080318;28;20203;-77
2022/01/26 11:00:37;;;;;;;118.47;29.93;;;;;;;;;;5085587;28;20255;-77
2022/01/26 11:03:05;;;;;;;121.93;29.13;;;;;;;;;;5080410;28;20220;-77
2022/01/26 11:05:32;;;;;;;116.50;29.10;;;;;;;;;;5080771;28;20667;-77
2022/01/26 11:08:01;;;;;;;120.37;29.17;;;;;;;;;;5085459;28;20662;-77
2022/01/26 11:10:35;;;;;;;117.03;28.63;;;;;;;;;;5084327;28;20577;-77
2022/01/26 11:13:05;;;;;;;124.83;29.40;;;;;;;;;;5081803;28;20237;-77
2022/01/26 11:15:33;;;;;;;113.37;28.40;;;;;;;;;;5083465;28;21012;-77
2022/01/26 11:18:07;;;;;;;104.03;27.53;;;;;;;;;;5080118;28;20954;-78
2022/01/26 11:20:45;;;;;;;93.10;27.07;;;;;;;;;;5085888;28;20696;-77
2022/01/26 11:23:13;;;;;;;88.67;22.13;;;;;;;;;;5084349;28;20312;-78
2022/01/26 11:25:41;;;;;;;96.37;24.13;;;;;;;;;;5083446;28;20279;-77
2022/01/26 11:28:16;;;;;;;89.20;24.50;;;;;;;;;;5085195;28;20206;-78
2022/01/26 11:30:43;;;;;;;99.80;26.90;;;;;;;;;;5083963;28;20201;-78
2022/01/26 11:33:14;;;;;;;89.23;25.13;;;;;;;;;;5079434;28;20226;-76
2022/01/26 11:35:44;;;;;;;98.40;26.20;;;;;;;;;;5084714;28;20210;-75
2022/01/26 11:38:30;;;;;;;86.13;23.87;;;;;;;;;;5083485;28;20264;-76
2022/01/26 11:46:52;;;;;;;86.77;25.33;;;;;;;;;;5062555;28;20202;-77
2022/01/26 11:49:24;;;;;;;84.13;22.67;;;;;;;;;;5062044;28;20284;-76
2022/01/26 11:51:53;;;;;;;71.40;22.00;;;;;;;;;;5074678;28;20601;-76
2022/01/26 11:54:21;;;;;;;65.20;20.03;;;;;;;;;;5080849;28;20245;-76
2022/01/26 11:56:56;;;;;;;71.37;20.77;;;;;;;;;;5083520;28;20289;-76
2022/01/26 11:59:27;;;;;;;71.57;21.63;;;;;;;;;;5080535;28;20542;-77
2022/01/26 12:02:00;;;;;;;73.80;20.17;;;;;;;;;;5083025;28;20202;-76
2022/01/26 12:04:30;;;;;;;67.67;19.73;;;;;;;;;;5086370;28;20222;-77
2022/01/26 12:07:09;;;;;;;59.37;18.23;;;;;;;;;;5082347;28;20632;-76
2022/01/26 12:09:36;;;;;;;58.10;17.97;;;;;;;;;;5075139;28;20305;-76
2022/01/26 12:12:05;;;;;;;66.03;20.20;;;;;;;;;;5080145;28;20209;-77
2022/01/26 12:14:34;;;;;;;65.37;18.63;;;;;;;;;;5079107;28;20226;-77
2022/01/26 12:17:05;;;;;;;69.07;19.27;;;;;;;;;;5077044;28;20205;-76
2022/01/26 12:19:37;;;;;;;63.60;19.93;;;;;;;;;;5078903;28;20198;-76
2022/01/26 12:35:55;;;;;;;63.70;18.10;;;;;;;;;;5068569;28;20213;-76
2022/01/26 12:38:30;;;;;;;54.80;16.40;;;;;;;;;;5083853;28;20686;-76
2022/01/26 12:41:23;;;;;;;54.60;16.40;;;;;;;;;;5081222;28;20276;-76
2022/01/26 12:43:53;;;;;;;62.33;19.07;;;;;;;;;;5078900;28;20736;-76
2022/01/26 12:46:22;;;;;;;65.33;19.03;;;;;;;;;;5081595;28;20568;-77
2022/01/26 12:48:50;;;;;;;59.30;17.30;;;;;;;;;;5078821;28;20205;-77
2022/01/26 12:51:18;;;;;;;65.73;18.40;;;;;;;;;;5080152;28;20197;-77
2022/01/26 12:53:45;;;;;;;61.13;19.83;;;;;;;;;;5083372;28;20796;-76
2022/01/26 12:56:13;;;;;;;74.17;24.50;;;;;;;;;;5083985;28;20293;-76
2022/01/26 12:58:41;;;;;;;63.83;19.57;;;;;;;;;;5084189;28;20300;-76
2022/01/26 13:01:10;;;;;;;64.20;19.17;;;;;;;;;;5084212;28;20229;-76
2022/01/26 13:03:40;;;;;;;66.70;20.10;;;;;;;;;;5081896;28;20305;-76
2022/01/26 13:06:11;;;;;;;65.33;19.97;;;;;;;;;;5081774;28;20708;-76
2022/01/26 13:08:42;;;;;;;74.83;21.93;;;;;;;;;;5084858;28;20228;-76
2022/01/26 13:11:09;;;;;;;72.97;23.90;;;;;;;;;;5082626;28;20290;-76
2022/01/26 13:13:36;;;;;;;69.50;20.20;;;;;;;;;;5079233;28;20221;-76
2022/01/26 13:16:15;;;;;;;58.40;18.53;;;;;;;;;;5080357;28;20574;-76
2022/01/26 13:19:11;;;;;;;68.80;22.23;;;;;;;;;;5080251;28;20213;-76
2022/01/26 13:24:46;;;;;;;84.83;27.27;;;;;;;;;;5080083;28;20299;-77
2022/01/26 13:27:24;;;;;;;63.93;19.50;;;;;;;;;;5080751;28;20210;-76
2022/01/26 13:30:04;;;;;;;103.30;40.03;;;;;;;;;;5081059;28;20198;-76
2022/01/26 13:35:39;;;;;;;69.27;23.10;;;;;;;;;;5081943;28;20687;-76
2022/01/26 13:38:19;;;;;;;80.43;25.63;;;;;;;;;;5080633;28;20195;-77
2022/01/26 13:41:05;;;;;;;78.77;25.83;;;;;;;;;;5082993;28;20263;-77
2022/01/26 13:49:26;;;;;;;57.80;18.70;;;;;;;;;;5043185;28;20207;-77
2022/01/26 13:52:15;;;;;;;75.43;23.03;;;;;;;;;;5080741;28;20205;-77
2022/01/26 13:55:04;;;;;;;64.40;19.00;;;;;;;;;;5081931;28;20233;-77
2022/01/26 14:00:15;;;;;;;57.20;17.30;;;;;;;;;;5072099;28;20213;-77
2022/01/26 14:02:42;;;;;;;53.53;17.97;;;;;;;;;;5084743;28;20201;-76
2022/01/26 14:05:10;;;;;;;64.27;17.47;;;;;;;;;;5083121;28;20230;-76
2022/01/26 14:07:38;;;;;;;60.17;17.33;;;;;;;;;;5083497;28;20336;-76
2022/01/26 14:10:07;;;;;;;62.33;16.80;;;;;;;;;;5080065;28;20203;-75
2022/01/26 14:12:39;;;;;;;59.77;16.33;;;;;;;;;;5080908;28;20255;-76
2022/01/26 14:15:08;;;;;;;58.80;19.70;;;;;;;;;;5083739;28;20700;-76
2022/01/26 14:17:43;;;;;;;52.03;15.93;;;;;;;;;;5077916;28;20193;-76
2022/01/26 14:20:41;;;;;;;56.90;18.23;;;;;;;;;;5084956;28;20302;-76
2022/01/26 14:23:19;;;;;;;56.87;17.53;;;;;;;;;;5082835;28;20595;-76
2022/01/26 14:25:49;;;;;;;48.07;15.17;;;;;;;;;;5081642;28;20688;-76
2022/01/26 14:28:18;;;;;;;64.40;16.07;;;;;;;;;;5081456;28;20201;-76
2022/01/26 14:30:54;;;;;;;53.93;16.17;;;;;;;;;;5086056;28;20205;-75
2022/01/26 14:33:49;;;;;;;58.07;16.93;;;;;;;;;;5082322;28;20221;-76
2022/01/26 15:35:02;;;;;;;78.63;20.87;;;;;;;;;;5080318;28;20228;-76
2022/01/26 15:40:30;;;;;;;76.77;18.67;;;;;;;;;;5081590;28;20563;-76
2022/01/26 15:48:47;;;;;;;66.60;18.80;;;;;;;;;;4993400;28;20572;-75
2022/01/26 15:51:31;;;;;;;79.50;20.87;;;;;;;;;;5065349;28;20304;-75
2022/01/26 16:04:19;;;;;;;70.50;20.00;;;;;;;;;;5080489;28;20247;-75
2022/01/26 16:05:39;;;;;;;75.10;20.03;;;;;;;;;;5076966;28;20298;-75
2022/01/26 16:08:24;;;;;;;74.23;18.10;;;;;;;;;;5079690;28;20210;-75
2022/01/26 16:16:42;;;;;;;74.77;18.50;;;;;;;;;;5080743;28;20246;-75
2022/01/26 16:36:05;;;;;;;63.53;18.93;;;;;;;;;;5079520;28;20256;-75
2022/01/26 16:52:39;;;;;;;59.37;16.07;;;;;;;;;;5075245;28;20228;-74
2022/01/26 17:12:13;;;;;;;61.30;16.83;;;;;;;;;;5070892;28;20217;-73
2022/01/26 18:04:12;;;;;;;56.27;18.80;;;;;;;;;;5078524;28;20240;-74
2022/01/26 18:17:58;;;;;;;66.27;20.63;;;;;;;;;;5080177;28;20227;-75
2022/01/26 18:26:14;;;;;;;51.37;15.73;;;;;;;;;;5036431;28;20286;-74
2022/01/26 18:50:44;;;;;;;41.00;14.53;;;;;;;;;;5084822;28;20209;-75
2022/01/26 18:53:13;;;;;;;42.80;14.50;;;;;;;;;;5084455;28;20236;-75
2022/01/26 18:55:40;;;;;;;50.17;16.60;;;;;;;;;;5080564;28;20232;-75
2022/01/26 18:58:07;;;;;;;42.13;14.23;;;;;;;;;;5086226;28;20267;-74
2022/01/26 19:00:35;;;;;;;49.17;14.47;;;;;;;;;;5084476;28;20281;-74
2022/01/26 19:03:03;;;;;;;35.77;13.97;;;;;;;;;;5081193;28;20300;-74
2022/01/26 19:05:30;;;;;;;47.40;16.43;;;;;;;;;;5085702;28;20198;-74
2022/01/26 19:07:58;;;;;;;43.83;15.37;;;;;;;;;;5084406;28;20236;-74
2022/01/26 19:10:25;;;;;;;38.37;13.10;;;;;;;;;;5081766;28;20205;-74
2022/01/26 19:12:52;;;;;;;40.37;13.13;;;;;;;;;;5084539;28;20225;-74
2022/01/26 19:15:23;;;;;;;42.80;13.73;;;;;;;;;;5083496;28;20237;-74
2022/01/26 19:17:55;;;;;;;41.73;13.70;;;;;;;;;;5082956;28;20208;-74
2022/01/26 19:20:40;;;;;;;38.40;13.90;;;;;;;;;;5082510;28;20213;-75
2022/01/26 19:23:24;;;;;;;40.27;14.50;;;;;;;;;;5082643;28;20312;-75
2022/01/26 19:25:55;;;;;;;40.87;13.50;;;;;;;;;;5081452;28;20612;-74
2022/01/26 19:28:27;;;;;;;44.23;14.73;;;;;;;;;;5083433;28;20213;-74
2022/01/26 19:45:04;;;;;;;44.47;14.43;;;;;;;;;;5076674;28;20217;-74
2022/01/26 19:52:59;;;;;;;47.60;17.33;;;;;;;;;;5077627;28;20256;-74
2022/01/26 19:55:27;;;;;;;47.37;14.53;;;;;;;;;;5076210;28;20222;-74
2022/01/26 19:57:54;;;;;;;39.80;13.67;;;;;;;;;;5078856;28;20205;-74
2022/01/26 20:00:22;;;;;;;48.17;17.27;;;;;;;;;;5078569;28;20212;-75
2022/01/26 20:02:49;;;;;;;49.13;16.60;;;;;;;;;;5083581;28;20336;-74
2022/01/26 20:05:17;;;;;;;46.57;16.47;;;;;;;;;;5080990;28;20210;-75
2022/01/26 20:07:47;;;;;;;49.93;16.80;;;;;;;;;;5084609;28;20616;-74
2022/01/26 20:10:23;;;;;;;43.50;15.57;;;;;;;;;;5079306;28;20209;-74
2022/01/26 20:12:59;;;;;;;45.97;14.07;;;;;;;;;;5080428;28;20294;-75
2022/01/26 20:15:26;;;;;;;57.20;19.17;;;;;;;;;;5082841;28;20221;-75
2022/01/26 20:17:53;;;;;;;52.93;16.77;;;;;;;;;;5077170;28;20289;-74
2022/01/26 20:20:21;;;;;;;65.47;19.93;;;;;;;;;;5082424;28;20237;-75
2022/01/26 20:22:49;;;;;;;51.57;15.13;;;;;;;;;;5078628;28;20260;-75
2022/01/26 20:25:18;;;;;;;51.87;15.50;;;;;;;;;;5079491;28;20298;-74
2022/01/26 20:27:45;;;;;;;54.73;18.07;;;;;;;;;;5079511;28;20664;-75
2022/01/26 20:30:15;;;;;;;44.83;15.37;;;;;;;;;;5078442;28;20194;-75
2022/01/26 20:32:44;;;;;;;54.90;16.90;;;;;;;;;;5080792;28;20688;-74
2022/01/26 20:35:11;;;;;;;58.50;17.67;;;;;;;;;;5079854;28;20305;-73
2022/01/26 20:37:39;;;;;;;67.67;25.93;;;;;;;;;;5079645;28;20201;-75
2022/01/26 20:40:07;;;;;;;47.20;16.37;;;;;;;;;;5079395;28;20268;-73
2022/01/26 20:42:36;;;;;;;59.97;20.77;;;;;;;;;;5078730;28;20201;-74
2022/01/26 20:45:06;;;;;;;64.83;19.90;;;;;;;;;;5078310;28;20212;-74
2022/01/26 20:47:33;;;;;;;54.93;17.07;;;;;;;;;;5081461;28;20209;-75
2022/01/26 20:50:00;;;;;;;42.97;14.20;;;;;;;;;;5077725;28;20289;-73
2022/01/26 20:52:28;;;;;;;53.13;18.83;;;;;;;;;;5074522;28;20212;-74
2022/01/26 20:54:59;;;;;;;47.13;16.60;;;;;;;;;;5076602;28;20320;-74
2022/01/26 20:57:26;;;;;;;54.03;16.97;;;;;;;;;;5077449;28;20571;-74
2022/01/26 20:59:55;;;;;;;43.93;15.20;;;;;;;;;;5077520;28;20232;-74
2022/01/26 21:02:22;;;;;;;52.27;18.13;;;;;;;;;;5077342;28;20241;-75
2022/01/26 21:04:49;;;;;;;63.47;26.23;;;;;;;;;;5078118;28;20225;-74
2022/01/26 21:07:16;;;;;;;51.20;17.77;;;;;;;;;;5077756;28;20216;-75
2022/01/26 21:09:44;;;;;;;50.07;15.83;;;;;;;;;;5075526;28;20205;-73
2022/01/26 21:12:11;;;;;;;44.83;15.20;;;;;;;;;;5077189;28;20202;-72
2022/01/26 21:14:38;;;;;;;50.53;18.67;;;;;;;;;;5078073;28;20245;-75
2022/01/26 21:17:08;;;;;;;45.97;18.13;;;;;;;;;;5078478;28;20206;-74
2022/01/26 21:19:35;;;;;;;43.70;15.90;;;;;;;;;;5076294;28;20217;-74
2022/01/26 21:22:03;;;;;;;52.17;17.20;;;;;;;;;;5079199;28;20296;-75
2022/01/26 21:24:30;;;;;;;47.87;17.63;;;;;;;;;;5074414;28;20240;-74
2022/01/26 21:26:58;;;;;;;54.20;14.87;;;;;;;;;;5078640;28;20236;-75
2022/01/26 21:29:26;;;;;;;43.90;14.50;;;;;;;;;;5075721;28;20686;-74
2022/01/26 21:31:53;;;;;;;45.03;15.70;;;;;;;;;;5080306;28;20669;-75
2022/01/26 21:34:22;;;;;;;42.00;13.70;;;;;;;;;;5080730;28;20226;-74
2022/01/26 21:36:49;;;;;;;37.17;12.83;;;;;;;;;;5080124;28;20228;-74
2022/01/26 21:39:16;;;;;;;38.77;13.77;;;;;;;;;;5079876;28;20286;-74
2022/01/26 21:41:45;;;;;;;41.40;14.27;;;;;;;;;;5080405;28;20198;-75
2022/01/26 21:44:13;;;;;;;42.30;13.80;;;;;;;;;;5074505;28;20287;-73
2022/01/26 21:46:42;;;;;;;44.23;14.37;;;;;;;;;;5081825;28;20552;-75
2022/01/26 21:49:09;;;;;;;42.43;13.97;;;;;;;;;;5080618;28;20193;-75
2022/01/26 21:51:38;;;;;;;38.23;12.53;;;;;;;;;;5077951;28;20283;-74
2022/01/26 21:54:05;;;;;;;43.53;13.63;;;;;;;;;;5079510;28;20225;-75
2022/01/26 21:56:32;;;;;;;39.60;12.20;;;;;;;;;;5082044;28;20257;-73
2022/01/26 21:58:59;;;;;;;38.07;12.33;;;;;;;;;;5080069;28;20233;-74
2022/01/26 22:01:27;;;;;;;38.80;12.30;;;;;;;;;;5080153;28;20207;-74
2022/01/26 22:03:54;;;;;;;33.30;10.17;;;;;;;;;;5079359;28;20700;-74
2022/01/26 22:06:21;;;;;;;38.60;11.90;;;;;;;;;;5077643;28;20460;-74
2022/01/26 22:08:49;;;;;;;36.53;11.40;;;;;;;;;;5081817;28;20220;-74
2022/01/26 22:11:17;;;;;;;38.17;12.20;;;;;;;;;;5082175;28;20687;-75
2022/01/26 22:13:44;;;;;;;38.60;13.17;;;;;;;;;;5080062;28;20218;-75
2022/01/26 22:16:11;;;;;;;36.10;11.27;;;;;;;;;;5078923;28;20331;-75
2022/01/26 22:18:38;;;;;;;43.90;12.77;;;;;;;;;;5084442;28;20669;-76
2022/01/26 22:21:05;;;;;;;37.83;12.00;;;;;;;;;;5080950;28;20691;-75
2022/01/26 22:23:35;;;;;;;29.80;10.27;;;;;;;;;;5078914;28;20711;-75
2022/01/26 22:26:03;;;;;;;35.10;11.83;;;;;;;;;;5081663;28;20293;-76
2022/01/26 22:28:32;;;;;;;32.60;11.83;;;;;;;;;;5075348;28;20199;-75
2022/01/26 22:30:59;;;;;;;33.53;10.97;;;;;;;;;;5076600;28;20202;-74
2022/01/26 22:33:27;;;;;;;29.47;10.43;;;;;;;;;;5080317;28;20229;-76
2022/01/26 22:35:54;;;;;;;30.03;10.37;;;;;;;;;;5076108;28;20597;-75
2022/01/26 22:38:21;;;;;;;27.37;8.83;;;;;;;;;;5076909;28;20217;-76
2022/01/26 22:40:50;;;;;;;23.90;8.87;;;;;;;;;;5079007;28;20197;-75
2022/01/26 22:43:19;;;;;;;30.13;9.80;;;;;;;;;;5076922;28;20218;-76
2022/01/26 22:45:47;;;;;;;29.83;9.97;;;;;;;;;;5080338;28;20193;-74
2022/01/26 22:48:20;;;;;;;24.90;8.83;;;;;;;;;;5076938;28;20302;-76
2022/01/26 22:50:47;;;;;;;27.33;8.70;;;;;;;;;;5081698;28;20702;-76
2022/01/26 22:53:14;;;;;;;23.90;8.23;;;;;;;;;;5080401;28;20679;-75
2022/01/26 22:55:41;;;;;;;25.80;9.00;;;;;;;;;;5076719;28;20267;-76
2022/01/26 22:58:08;;;;;;;25.47;8.67;;;;;;;;;;5080074;28;20306;-75
2022/01/26 23:00:43;;;;;;;23.47;8.03;;;;;;;;;;5078273;28;20570;-75
2022/01/26 23:03:11;;;;;;;25.23;8.40;;;;;;;;;;5079574;28;20711;-74
2022/01/26 23:06:00;;;;;;;23.03;8.23;;;;;;;;;;5081833;28;20205;-74
2022/01/26 23:08:27;;;;;;;23.97;7.87;;;;;;;;;;5076317;28;20221;-75
2022/01/26 23:10:54;;;;;;;24.90;8.70;;;;;;;;;;5076673;28;20209;-76
2022/01/26 23:13:22;;;;;;;22.30;7.97;;;;;;;;;;5080523;28;20222;-75
2022/01/26 23:15:50;;;;;;;24.30;9.10;;;;;;;;;;5078639;28;20221;-75